createdAt,value
2022-09-23T00:01:23.512Z,4.90
2022-09-23T00:03:50.948Z,4.60
2022-09-23T00:06:23.019Z,4.13
2022-09-23T00:08:51.843Z,4.68
2022-09-23T00:11:28.378Z,4.88
2022-09-23T00:14:00.500Z,4.43
2022-09-23T00:16:34.648Z,4.60
2022-09-23T00:19:04.097Z,4.03
2022-09-23T00:21:31.430Z,4.35
2022-09-23T00:23:58.709Z,3.90
2022-09-23T00:26:25.915Z,4.43
2022-09-23T00:28:53.248Z,4.13
2022-09-23T00:31:25.938Z,3.83
2022-09-23T00:34:01.757Z,3.95
2022-09-23T00:36:32.192Z,3.95
2022-09-23T00:38:59.966Z,3.72
2022-09-23T00:41:27.680Z,3.70
2022-09-23T00:44:01.155Z,3.63
2022-09-23T00:46:40.423Z,3.90
2022-09-23T00:49:27.593Z,3.55
2022-09-23T00:52:05.626Z,3.67
2022-09-23T00:54:32.998Z,3.50
2022-09-23T00:57:01.370Z,3.85
2022-09-23T00:59:29.271Z,3.53
2022-09-23T01:01:59.216Z,3.60
2022-09-23T01:04:29.045Z,3.65
2022-09-23T01:06:56.485Z,3.45
2022-09-23T01:09:25.152Z,3.60
2022-09-23T01:12:24.286Z,3.75
2022-09-23T01:15:11.183Z,4.05
2022-09-23T01:18:09.285Z,3.78
2022-09-23T01:21:18.534Z,3.47
2022-09-23T01:24:39.666Z,3.70
2022-09-23T01:27:47.278Z,3.60
2022-09-23T01:30:40.899Z,3.58
2022-09-23T01:33:39.855Z,3.28
2022-09-23T01:36:24.792Z,3.60
2022-09-23T01:39:35.604Z,3.10
2022-09-23T01:43:01.404Z,3.70
2022-09-23T01:45:46.021Z,3.75
2022-09-23T01:48:50.568Z,3.20
2022-09-23T01:51:36.040Z,3.22
2022-09-23T01:54:38.896Z,3.47
2022-09-23T01:57:36.377Z,3.22
2022-09-23T02:00:14.321Z,3.10
2022-09-23T02:02:56.292Z,2.70
2022-09-23T02:05:59.465Z,3.20
2022-09-23T02:08:44.546Z,2.70
2022-09-23T02:11:15.547Z,2.85
2022-09-23T02:13:59.055Z,2.95
2022-09-23T02:16:43.991Z,2.65
2022-09-23T02:19:55.541Z,3.92
2022-09-23T02:23:03.117Z,2.80
2022-09-23T02:25:59.965Z,2.85
2022-09-23T02:28:37.442Z,2.78
2022-09-23T02:31:53.532Z,2.75
2022-09-23T02:35:08.015Z,2.28
2022-09-23T02:38:11.281Z,2.42
2022-09-23T02:41:04.650Z,2.22
2022-09-23T02:43:42.623Z,2.75
2022-09-23T02:46:10.793Z,2.47
2022-09-23T02:48:53.537Z,2.58
2022-09-23T02:51:20.963Z,2.20
2022-09-23T02:53:48.678Z,2.17
2022-09-23T02:56:21.758Z,2.40
2022-09-23T02:58:54.084Z,2.90
2022-09-23T03:01:57.174Z,2.47
2022-09-23T03:05:12.670Z,2.15
2022-09-23T03:08:25.647Z,2.40
2022-09-23T03:11:04.291Z,2.33
2022-09-23T03:14:17.750Z,3.08
2022-09-23T03:17:07.256Z,2.33
2022-09-23T03:19:54.076Z,2.00
2022-09-23T03:22:34.175Z,2.08
2022-09-23T03:25:13.638Z,2.50
2022-09-23T03:27:42.848Z,2.70
2022-09-23T03:30:13.110Z,2.97
2022-09-23T03:32:45.811Z,2.70
2022-09-23T03:35:14.606Z,2.78
2022-09-23T03:38:11.192Z,2.90
2022-09-23T03:40:43.578Z,2.60
2022-09-23T03:43:13.849Z,2.90
2022-09-23T03:45:42.590Z,2.75
2022-09-23T03:48:09.983Z,3.00
2022-09-23T03:50:37.513Z,2.75
2022-09-23T03:53:04.790Z,3.28
2022-09-23T03:55:32.219Z,3.97
2022-09-23T03:58:00.210Z,3.00
2022-09-23T04:00:27.686Z,2.72
2022-09-23T04:02:54.825Z,3.40
2022-09-23T04:05:22.054Z,3.42
2022-09-23T04:07:50.819Z,3.53
2022-09-23T04:10:18.265Z,3.28
2022-09-23T04:12:45.498Z,3.80
2022-09-23T04:15:13.115Z,4.05
2022-09-23T04:17:40.842Z,3.60
2022-09-23T04:20:09.023Z,3.40
2022-09-23T04:22:38.603Z,3.45
2022-09-23T04:25:07.210Z,3.20
2022-09-23T04:27:37.792Z,3.70
2022-09-23T04:30:06.982Z,3.75
2022-09-23T04:32:34.170Z,3.70
2022-09-23T04:35:01.488Z,4.07
2022-09-23T04:37:29.394Z,4.93
2022-09-23T04:39:56.558Z,4.10
2022-09-23T04:42:24.050Z,4.13
2022-09-23T04:44:51.371Z,4.55
2022-09-23T04:47:19.272Z,4.72
2022-09-23T04:49:46.502Z,4.00
2022-09-23T04:52:13.797Z,3.95
2022-09-23T04:54:41.706Z,4.10
2022-09-23T04:57:11.061Z,4.30
2022-09-23T04:59:38.283Z,4.05
2022-09-23T05:02:05.807Z,4.57
2022-09-23T05:04:33.198Z,4.07
2022-09-23T05:07:03.287Z,4.75
2022-09-23T05:09:31.098Z,4.70
2022-09-23T05:11:58.449Z,4.18
2022-09-23T05:14:25.648Z,4.45
2022-09-23T05:16:52.857Z,4.40
2022-09-23T05:19:20.658Z,4.72
2022-09-23T05:21:47.986Z,4.32
2022-09-23T05:24:16.670Z,4.45
2022-09-23T05:26:44.041Z,4.60
2022-09-23T05:29:11.381Z,3.97
2022-09-23T05:31:38.800Z,3.65
2022-09-23T05:34:06.851Z,4.13
2022-09-23T05:36:39.013Z,3.90
2022-09-23T05:39:08.575Z,3.97
2022-09-23T05:41:37.046Z,4.47
2022-09-23T05:44:04.773Z,3.67
2022-09-23T05:46:33.120Z,4.07
2022-09-23T05:49:03.237Z,4.85
2022-09-23T05:51:33.203Z,4.43
2022-09-23T05:54:02.780Z,4.20
2022-09-23T05:56:31.870Z,4.28
2022-09-23T05:59:02.387Z,4.53
2022-09-23T06:01:35.318Z,4.15
2022-09-23T06:04:06.739Z,4.03
2022-09-23T06:06:38.773Z,4.22
2022-09-23T06:09:08.382Z,4.05
2022-09-23T06:11:36.362Z,4.60
2022-09-23T06:14:04.658Z,4.63
2022-09-23T06:16:36.610Z,4.47
2022-09-23T06:19:07.589Z,4.30
2022-09-23T06:21:38.547Z,4.15
2022-09-23T06:24:08.937Z,3.95
2022-09-23T06:26:37.906Z,3.78
2022-09-23T06:29:14.631Z,4.57
2022-09-23T06:31:43.286Z,4.47
2022-09-23T06:34:14.172Z,4.40
2022-09-23T06:36:46.088Z,4.82
2022-09-23T06:39:15.317Z,5.03
2022-09-23T06:41:45.457Z,5.00
2022-09-23T06:44:14.951Z,4.28
2022-09-23T06:46:42.981Z,5.60
2022-09-23T06:49:12.498Z,5.78
2022-09-23T06:51:40.248Z,3.83
2022-09-23T06:54:07.950Z,4.10
2022-09-23T06:56:39.136Z,4.38
2022-09-23T06:59:09.851Z,3.08
2022-09-23T07:01:37.185Z,3.13
2022-09-23T07:04:04.796Z,3.55
2022-09-23T07:06:32.199Z,3.25
2022-09-23T07:09:00.883Z,3.33
2022-09-23T07:11:28.138Z,3.88
2022-09-23T07:13:55.347Z,3.20
2022-09-23T07:16:22.569Z,3.97
2022-09-23T07:18:49.779Z,3.50
2022-09-23T07:21:19.139Z,3.70
2022-09-23T07:23:50.333Z,3.30
2022-09-23T07:26:19.704Z,6.10
2022-09-23T07:28:47.396Z,3.17
2022-09-23T07:31:31.187Z,3.20
2022-09-23T07:34:04.624Z,3.17
2022-09-23T07:36:32.870Z,3.88
2022-09-23T07:39:03.146Z,3.33
2022-09-23T07:41:33.107Z,3.53
2022-09-23T07:44:01.317Z,3.20
2022-09-23T07:46:33.974Z,3.10
2022-09-23T07:49:03.126Z,3.30
2022-09-23T07:51:36.578Z,2.85
2022-09-23T07:54:11.025Z,3.00
2022-09-23T07:56:39.406Z,2.88
2022-09-23T07:59:11.825Z,2.45
2022-09-23T08:01:44.943Z,2.40
2022-09-23T08:04:30.994Z,2.75
2022-09-23T08:09:34.499Z,3.33
2022-09-23T08:12:02.135Z,2.90
2022-09-23T08:14:29.449Z,2.92
2022-09-23T08:16:57.502Z,3.60
2022-09-23T08:19:24.961Z,3.90
2022-09-23T08:21:52.487Z,2.80
2022-09-23T08:24:24.089Z,3.20
2022-09-23T08:26:54.306Z,3.03
2022-09-23T08:29:25.344Z,3.30
2022-09-23T08:31:53.884Z,4.47
2022-09-23T08:34:23.766Z,3.60
2022-09-23T08:36:52.322Z,4.50
2022-09-23T08:39:21.157Z,3.83
2022-09-23T08:41:58.499Z,3.90
2022-09-23T08:44:58.285Z,3.97
2022-09-23T08:47:56.473Z,4.15
2022-09-23T08:50:37.118Z,4.28
2022-09-23T08:53:15.321Z,4.15
2022-09-23T08:55:50.876Z,3.42
2022-09-23T09:01:40.565Z,2.67
2022-09-23T09:04:27.887Z,3.28
2022-09-23T09:07:34.796Z,2.72
2022-09-23T09:10:25.083Z,3.90
2022-09-23T09:13:12.109Z,3.95
2022-09-23T09:16:07.350Z,3.03
2022-09-23T09:18:40.728Z,3.15
2022-09-23T09:21:13.452Z,3.33
2022-09-23T09:23:56.468Z,3.58
2022-09-23T09:26:28.650Z,3.92
2022-09-23T09:29:33.736Z,3.70
2022-09-23T09:32:00.434Z,3.70
2022-09-23T09:34:43.121Z,3.53
2022-09-23T09:37:43.057Z,4.05
2022-09-23T09:40:20.361Z,3.42
2022-09-23T09:42:50.294Z,4.10
2022-09-23T09:45:38.557Z,4.13
2022-09-23T09:48:17.625Z,4.03
2022-09-23T09:50:56.011Z,4.70
2022-09-23T09:53:35.627Z,4.40
2022-09-23T09:56:07.420Z,4.28
2022-09-23T09:58:52.503Z,4.22
2022-09-23T10:01:34.244Z,4.40
2022-09-23T10:04:22.791Z,4.40
2022-09-23T10:07:15.747Z,4.15
2022-09-23T10:09:51.133Z,3.97
2022-09-23T10:12:24.991Z,4.53
2022-09-23T10:14:57.373Z,4.15
2022-09-23T10:17:33.866Z,4.88
2022-09-23T10:20:09.068Z,4.45
2022-09-23T10:22:42.489Z,5.15
2022-09-23T10:25:30.078Z,4.20
2022-09-23T10:27:57.362Z,5.00
2022-09-23T10:30:28.306Z,3.75
2022-09-23T10:32:56.902Z,4.00
2022-09-23T10:35:26.573Z,4.45
2022-09-23T10:38:00.452Z,4.18
2022-09-23T10:41:00.438Z,4.13
2022-09-23T10:44:26.526Z,4.35
2022-09-23T10:47:41.160Z,5.05
2022-09-23T10:50:40.145Z,5.00
2022-09-23T10:53:26.032Z,5.15
2022-09-23T10:59:16.250Z,4.78
2022-09-23T11:02:31.212Z,4.90
2022-09-23T11:05:40.455Z,4.50
2022-09-23T11:08:34.189Z,5.15
2022-09-23T11:11:55.281Z,5.40
2022-09-23T11:15:19.071Z,4.65
2022-09-23T11:18:06.719Z,5.13
2022-09-23T11:20:56.502Z,5.18
2022-09-23T11:23:54.291Z,4.95
2022-09-23T11:27:05.139Z,4.63
2022-09-23T11:29:58.287Z,5.00
2022-09-23T11:33:05.676Z,4.65
2022-09-23T11:35:57.262Z,5.38
2022-09-23T11:38:36.527Z,5.07
2022-09-23T11:41:30.911Z,5.60
2022-09-23T11:44:14.984Z,5.18
2022-09-23T11:46:51.554Z,5.20
2022-09-23T11:49:35.312Z,5.13
2022-09-23T11:52:26.305Z,4.75
2022-09-23T11:55:14.836Z,5.53
2022-09-23T11:57:54.501Z,5.10
2022-09-23T12:00:28.400Z,5.72
2022-09-23T12:03:56.018Z,4.90
2022-09-23T12:06:55.261Z,4.15
2022-09-23T12:09:57.136Z,4.97
2022-09-23T12:12:47.937Z,4.93
2022-09-23T12:16:04.064Z,5.28
2022-09-23T12:19:13.254Z,4.55
2022-09-23T12:22:52.849Z,5.18
2022-09-23T12:25:51.054Z,5.20
2022-09-23T12:28:29.583Z,4.70
2022-09-23T12:31:02.411Z,4.63
2022-09-23T12:33:33.529Z,5.05
2022-09-23T12:36:12.165Z,5.30
2022-09-23T12:38:55.070Z,5.13
2022-09-23T12:41:39.585Z,5.05
2022-09-23T12:44:14.354Z,4.25
2022-09-23T12:46:46.243Z,4.43
2022-09-23T12:49:37.537Z,4.80
2022-09-23T12:52:31.422Z,5.18
2022-09-23T12:55:24.581Z,4.88
2022-09-23T12:57:51.926Z,5.07
2022-09-23T13:00:30.956Z,5.35
2022-09-23T13:03:20.354Z,4.65
2022-09-23T13:06:19.853Z,4.70
2022-09-23T13:08:49.517Z,4.70
2022-09-23T13:11:29.035Z,4.13
2022-09-23T13:14:01.834Z,4.53
2022-09-23T13:16:39.796Z,5.78
2022-09-23T13:19:26.326Z,4.95
2022-09-23T13:22:09.387Z,4.82
2022-09-23T13:24:45.860Z,5.05
2022-09-23T13:27:31.204Z,4.90
2022-09-23T13:30:25.957Z,4.20
2022-09-23T13:33:14.382Z,4.93
2022-09-23T13:35:56.685Z,5.38
2022-09-23T13:38:29.600Z,4.72
2022-09-23T13:41:13.848Z,4.32
2022-09-23T13:44:00.483Z,5.05
2022-09-23T13:46:34.144Z,5.45
2022-09-23T13:49:02.734Z,4.70
2022-09-23T13:51:37.074Z,5.25
2022-09-23T13:54:05.421Z,5.95
2022-09-23T13:56:35.283Z,4.60
2022-09-23T13:59:27.690Z,4.30
2022-09-23T14:02:16.701Z,4.38
2022-09-23T14:04:44.668Z,5.18
2022-09-23T14:07:15.881Z,4.53
2022-09-23T14:09:51.473Z,5.22
2022-09-23T14:12:22.167Z,4.95
2022-09-23T14:14:52.483Z,5.13
2022-09-23T14:17:25.770Z,5.00
2022-09-23T14:19:53.065Z,5.22
2022-09-23T14:22:30.418Z,6.72
2022-09-23T14:24:58.487Z,5.88
2022-09-23T14:27:33.007Z,4.95
2022-09-23T14:30:03.696Z,4.37
2022-09-23T14:32:32.657Z,4.45
2022-09-23T14:34:59.879Z,5.07
2022-09-23T14:37:53.519Z,5.10
2022-09-23T14:40:50.737Z,5.63
2022-09-23T14:43:26.572Z,5.18
2022-09-23T14:45:59.073Z,5.35
2022-09-23T14:48:34.245Z,5.35
2022-09-23T14:51:07.538Z,5.32
2022-09-23T14:53:46.332Z,4.63
2022-09-23T14:56:21.109Z,5.25
2022-09-23T14:58:52.908Z,4.97
2022-09-23T15:01:38.856Z,5.00
2022-09-23T15:04:24.628Z,5.45
2022-09-23T15:09:41.075Z,6.18
2022-09-23T15:12:21.600Z,5.45
2022-09-23T15:14:56.583Z,5.22
2022-09-23T15:17:23.607Z,6.15
2022-09-23T15:20:01.295Z,5.35
2022-09-23T15:22:28.879Z,5.13
2022-09-23T15:25:35.992Z,5.38
2022-09-23T15:28:12.255Z,6.10
2022-09-23T15:30:40.558Z,5.53
2022-09-23T15:33:11.294Z,6.35
2022-09-23T15:35:46.445Z,5.43
2022-09-23T15:38:13.785Z,5.43
2022-09-23T15:40:41.306Z,5.95
2022-09-23T15:43:21.873Z,5.57
2022-09-23T15:46:06.750Z,5.88
2022-09-23T15:49:01.157Z,6.53
2022-09-23T15:51:28.822Z,6.47
2022-09-23T15:53:56.476Z,7.07
2022-09-23T15:56:27.002Z,5.82
2022-09-23T15:58:54.249Z,6.20
2022-09-23T16:01:32.095Z,6.57
2022-09-23T16:04:04.262Z,5.57
2022-09-23T16:06:32.345Z,5.50
2022-09-23T16:08:59.603Z,6.78
2022-09-23T16:11:31.959Z,5.82
2022-09-23T16:14:03.150Z,6.15
2022-09-23T16:16:31.439Z,5.65
2022-09-23T16:18:58.756Z,5.75
2022-09-23T16:21:28.450Z,5.13
2022-09-23T16:23:57.223Z,5.00
2022-09-23T16:26:29.610Z,5.28
2022-09-23T16:28:59.436Z,5.28
2022-09-23T16:31:31.219Z,5.00
2022-09-23T16:34:02.077Z,5.07
2022-09-23T16:36:43.104Z,5.00
2022-09-23T16:39:13.607Z,5.63
2022-09-23T16:41:42.776Z,5.22
2022-09-23T16:44:12.303Z,5.05
2022-09-23T16:46:42.707Z,5.88
2022-09-23T16:49:13.662Z,4.93
2022-09-23T16:51:41.311Z,5.78
2022-09-23T16:54:13.128Z,5.72
2022-09-23T16:56:44.439Z,5.50
2022-09-23T16:59:14.920Z,5.43
2022-09-23T17:02:06.010Z,6.22
2022-09-23T17:04:33.250Z,5.72
2022-09-23T17:07:00.554Z,5.80
2022-09-23T17:09:30.135Z,6.57
2022-09-23T17:12:20.222Z,5.60
2022-09-23T17:14:47.574Z,5.82
2022-09-23T17:17:15.459Z,4.88
2022-09-23T17:19:42.647Z,5.45
2022-09-23T17:22:09.990Z,4.43
2022-09-23T17:24:37.233Z,5.35
2022-09-23T17:27:04.491Z,4.88
2022-09-23T17:29:31.884Z,9.23
2022-09-23T17:31:59.273Z,5.18
2022-09-23T17:34:28.757Z,4.90
2022-09-23T17:36:55.980Z,7.15
2022-09-23T17:39:23.250Z,5.93
2022-09-23T17:41:50.479Z,5.45
2022-09-23T17:44:17.827Z,5.30
2022-09-23T17:46:44.987Z,4.88
2022-09-23T17:49:12.289Z,6.20
2022-09-23T17:51:39.617Z,4.60
2022-09-23T17:54:06.962Z,3.72
2022-09-23T17:56:34.304Z,4.13
2022-09-23T17:59:02.683Z,3.97
2022-09-23T18:01:30.477Z,4.03
2022-09-23T18:04:05.576Z,3.95
2022-09-23T18:06:36.708Z,4.32
2022-09-23T18:09:06.961Z,8.85
2022-09-23T18:11:42.190Z,5.15
2022-09-23T18:14:16.335Z,4.50
2022-09-23T18:16:47.879Z,4.70
2022-09-23T18:19:19.454Z,4.20
2022-09-23T18:21:51.940Z,4.80
2022-09-23T18:24:35.259Z,5.38
2022-09-23T18:27:02.648Z,4.75
2022-09-23T18:29:30.299Z,5.07
2022-09-23T18:31:59.114Z,5.65
2022-09-23T18:34:26.682Z,6.72
2022-09-23T18:36:56.002Z,5.25
2022-09-23T18:39:23.359Z,5.25
2022-09-23T18:41:51.033Z,5.72
2022-09-23T18:44:19.876Z,5.68
2022-09-23T18:46:47.052Z,6.53
2022-09-23T18:49:32.928Z,7.03
2022-09-23T18:52:00.379Z,8.43
2022-09-23T18:54:29.167Z,9.18
2022-09-23T18:56:56.722Z,9.73
2022-09-23T18:59:28.964Z,11.30
2022-09-23T19:01:57.321Z,10.45
2022-09-23T19:04:27.255Z,11.48
2022-09-23T19:06:56.464Z,10.88
2022-09-23T19:09:24.159Z,12.70
2022-09-23T19:11:53.282Z,11.45
2022-09-23T19:14:21.308Z,12.43
2022-09-23T19:16:51.459Z,12.02
2022-09-23T19:19:18.718Z,11.32
2022-09-23T19:21:45.985Z,12.23
2022-09-23T19:24:16.118Z,12.10
2022-09-23T19:26:44.244Z,12.52
2022-09-23T19:29:19.566Z,12.90
2022-09-23T19:34:19.660Z,11.75
2022-09-23T19:36:48.215Z,12.63
2022-09-23T19:39:26.198Z,12.98
2022-09-23T19:41:55.776Z,13.02
2022-09-23T19:44:25.052Z,12.68
2022-09-23T19:46:56.491Z,13.98
2022-09-23T19:49:25.724Z,13.20
2022-09-23T19:51:55.796Z,12.88
2022-09-23T19:54:26.563Z,14.63
2022-09-23T19:56:54.180Z,13.82
2022-09-23T19:59:21.546Z,13.95
2022-09-23T20:01:49.347Z,13.80
2022-09-23T20:04:17.036Z,13.40
2022-09-23T20:06:45.803Z,13.05
2022-09-23T20:09:13.113Z,13.35
2022-09-23T20:11:42.875Z,12.40
2022-09-23T20:14:12.879Z,13.75
2022-09-23T20:16:40.445Z,12.00
2022-09-23T20:19:07.815Z,12.30
2022-09-23T20:21:35.468Z,12.20
2022-09-23T20:24:05.650Z,12.63
2022-09-23T20:26:51.950Z,14.00
2022-09-23T20:29:19.184Z,13.05
2022-09-23T20:31:46.520Z,13.30
2022-09-23T20:34:13.746Z,12.88
2022-09-23T20:36:41.685Z,13.40
2022-09-23T20:39:10.363Z,12.95
2022-09-23T20:41:39.249Z,11.27
2022-09-23T20:44:13.944Z,12.27
2022-09-23T20:46:48.642Z,12.40
2022-09-23T20:49:17.747Z,12.15
2022-09-23T20:51:45.261Z,13.57
2022-09-23T20:54:12.448Z,11.73
2022-09-23T20:56:40.037Z,11.68
2022-09-23T20:59:07.319Z,12.07
2022-09-23T21:01:36.950Z,11.20
2022-09-23T21:04:05.704Z,12.63
2022-09-23T21:06:38.819Z,11.50
2022-09-23T21:09:07.204Z,11.57
2022-09-23T21:11:34.862Z,11.98
2022-09-23T21:14:02.524Z,12.85
2022-09-23T21:16:29.989Z,12.38
2022-09-23T21:18:58.831Z,11.88
2022-09-23T21:21:26.500Z,12.57
2022-09-23T21:23:53.864Z,11.85
2022-09-23T21:26:25.337Z,12.63
2022-09-23T21:29:00.818Z,12.80
2022-09-23T21:34:11.136Z,12.00
2022-09-23T21:36:42.801Z,12.43
2022-09-23T21:39:11.843Z,12.27
2022-09-23T21:41:39.983Z,11.40
2022-09-23T21:44:08.403Z,12.93
2022-09-23T21:46:36.888Z,12.40
2022-09-23T21:49:04.989Z,12.27
2022-09-23T21:51:42.936Z,11.88
2022-09-23T21:54:16.848Z,11.98
2022-09-23T21:56:44.930Z,11.63
2022-09-23T21:59:12.878Z,12.05
2022-09-23T22:01:44.851Z,12.38
2022-09-23T22:04:18.933Z,11.90
2022-09-23T22:06:48.754Z,12.88
2022-09-23T22:09:20.339Z,11.95
2022-09-23T22:12:09.496Z,12.85
2022-09-23T22:14:38.796Z,12.40
2022-09-23T22:17:10.327Z,13.00
2022-09-23T22:19:45.620Z,12.45
2022-09-23T22:22:17.920Z,12.63
2022-09-23T22:24:48.588Z,11.88
2022-09-23T22:27:19.974Z,11.52
2022-09-23T22:30:06.450Z,12.60
2022-09-23T22:32:46.073Z,13.93
2022-09-23T22:35:17.786Z,13.07
2022-09-23T22:37:46.148Z,14.88
2022-09-23T22:40:15.661Z,13.90
2022-09-23T22:42:43.939Z,13.00
2022-09-23T22:45:12.857Z,13.55
2022-09-23T22:47:44.015Z,13.63
2022-09-23T22:50:13.883Z,12.90
2022-09-23T22:52:41.231Z,12.98
2022-09-23T22:55:09.283Z,14.27
2022-09-23T22:57:36.874Z,13.27
2022-09-23T23:00:09.468Z,13.90
2022-09-23T23:02:36.746Z,13.52
2022-09-23T23:05:04.572Z,14.73
2022-09-23T23:07:32.086Z,14.10
2022-09-23T23:09:59.391Z,13.05
2022-09-23T23:12:26.653Z,13.23
2022-09-23T23:14:54.768Z,13.60
2022-09-23T23:17:22.017Z,15.05
2022-09-23T23:19:50.511Z,13.18
2022-09-23T23:22:17.883Z,13.10
2022-09-23T23:24:45.156Z,13.02
2022-09-23T23:27:12.428Z,13.25
2022-09-23T23:29:39.713Z,13.30
2022-09-23T23:32:07.643Z,13.48
2022-09-23T23:34:34.825Z,13.57
2022-09-23T23:37:02.060Z,13.02
2022-09-23T23:39:29.389Z,13.70
2022-09-23T23:41:58.346Z,13.32
2022-09-23T23:44:27.156Z,13.65
2022-09-23T23:46:55.235Z,13.85
2022-09-23T23:49:22.886Z,14.57
2022-09-23T23:51:50.179Z,14.35
2022-09-23T23:54:17.549Z,13.90
2022-09-23T23:56:45.267Z,13.75
2022-09-23T23:59:13.495Z,12.90
